Time;durP1;ratioP1;P1;durP2;ratioP2;P2;SDS_P1;SDS_P2;PMS_P1;PMS_P2;Temp;Humidity;BMP_temperature;BMP_pressure;BME280_temperature;BME280_humidity;BME280_pressure;Samples;Min_cycle;Max_cycle;Signal;HPM_P1;HPM_P2
2021/03/15 00:00:08;;;;;;;1.25;0.80;;;3.90;99.90;;;;;;1979660;72;21050;-77
2021/03/15 00:02:34;;;;;;;1.82;1.60;;;3.90;99.90;;;;;;1980839;72;21062;-77
2021/03/15 00:05:01;;;;;;;1.32;1.00;;;3.90;99.90;;;;;;1982246;72;21051;-77
2021/03/15 00:07:27;;;;;;;1.75;1.35;;;3.90;99.90;;;;;;1979949;72;21485;-75
2021/03/15 00:09:53;;;;;;;1.27;1.15;;;3.90;99.90;;;;;;1981175;72;21082;-77
2021/03/15 00:12:20;;;;;;;1.15;1.05;;;3.90;99.90;;;;;;1980847;72;21027;-76
2021/03/15 00:14:47;;;;;;;1.77;1.20;;;3.90;99.90;;;;;;1982007;72;21062;-77
2021/03/15 00:17:13;;;;;;;2.58;1.30;;;4.00;99.90;;;;;;1979676;72;21054;-76
2021/03/15 00:19:40;;;;;;;1.25;1.12;;;4.00;99.90;;;;;;1981333;72;21066;-77
2021/03/15 00:22:06;;;;;;;1.98;1.20;;;4.00;99.90;;;;;;1979174;72;21051;-77
2021/03/15 00:24:32;;;;;;;2.10;1.50;;;3.90;99.90;;;;;;1980305;72;21031;-76
2021/03/15 00:26:58;;;;;;;1.60;1.50;;;4.00;99.90;;;;;;1980141;72;21054;-76
2021/03/15 00:29:25;;;;;;;1.87;1.30;;;4.00;99.90;;;;;;1978958;72;21066;-77
2021/03/15 00:31:51;;;;;;;0.88;0.88;;;4.10;99.90;;;;;;1978589;72;21129;-76
2021/03/15 00:34:17;;;;;;;0.98;0.98;;;4.00;99.90;;;;;;1981099;72;21050;-77
2021/03/15 00:36:43;;;;;;;1.30;1.20;;;4.00;99.90;;;;;;1981859;72;21088;-77
2021/03/15 00:39:09;;;;;;;4.45;1.20;;;4.00;99.90;;;;;;1978806;72;21131;-76
2021/03/15 00:41:35;;;;;;;1.20;1.10;;;3.90;99.90;;;;;;1978744;72;21135;-78
2021/03/15 00:44:01;;;;;;;1.52;1.40;;;3.90;99.90;;;;;;1981436;72;21120;-76
2021/03/15 00:46:27;;;;;;;1.70;1.22;;;3.90;99.90;;;;;;1981070;72;21027;-76
2021/03/15 00:48:53;;;;;;;2.30;1.90;;;3.80;99.90;;;;;;1978560;72;21112;-77
2021/03/15 00:51:20;;;;;;;8.30;1.22;;;3.70;99.90;;;;;;1981541;72;21058;-76
2021/03/15 00:53:46;;;;;;;2.02;1.45;;;3.70;99.90;;;;;;1981699;72;21098;-77
2021/03/15 00:56:12;;;;;;;2.12;1.50;;;3.60;99.90;;;;;;1981526;72;21539;-78
2021/03/15 00:58:38;;;;;;;1.92;1.40;;;3.60;99.90;;;;;;1981724;72;21551;-77
2021/03/15 01:01:04;;;;;;;1.95;1.62;;;3.60;99.90;;;;;;1980381;72;21494;-77
2021/03/15 01:03:30;;;;;;;2.35;1.72;;;3.50;99.90;;;;;;1981804;72;21132;-76
2021/03/15 01:05:56;;;;;;;1.62;1.45;;;3.50;99.90;;;;;;1981892;72;21054;-76
2021/03/15 01:08:22;;;;;;;2.50;1.82;;;3.50;99.90;;;;;;1981814;72;21019;-77
2021/03/15 01:10:49;;;;;;;1.85;1.60;;;3.40;99.90;;;;;;1981257;72;21055;-76
2021/03/15 01:13:15;;;;;;;3.85;1.62;;;3.40;99.90;;;;;;1979412;72;21128;-76
2021/03/15 01:15:41;;;;;;;3.00;1.75;;;3.30;99.90;;;;;;1978797;72;21096;-76
2021/03/15 01:18:07;;;;;;;2.08;1.60;;;3.40;99.90;;;;;;1979517;72;21109;-77
2021/03/15 01:20:33;;;;;;;3.87;2.02;;;3.20;99.90;;;;;;1980973;72;21471;-77
2021/03/15 01:22:59;;;;;;;4.28;1.62;;;3.30;99.90;;;;;;1979277;72;21478;-77
2021/03/15 01:25:25;;;;;;;1.65;1.55;;;3.40;99.90;;;;;;1980252;72;21067;-76
2021/03/15 01:27:51;;;;;;;2.25;1.60;;;3.40;99.90;;;;;;1978876;72;21030;-75
2021/03/15 01:30:18;;;;;;;3.45;2.62;;;3.40;99.90;;;;;;1981788;72;21050;-77
2021/03/15 01:32:45;;;;;;;2.35;1.85;;;3.40;99.90;;;;;;1981857;72;21624;-77
2021/03/15 01:35:11;;;;;;;1.32;1.22;;;3.50;99.90;;;;;;1979306;72;21489;-76
2021/03/15 01:37:37;;;;;;;2.42;1.77;;;3.40;99.90;;;;;;1980425;72;21050;-76
2021/03/15 01:40:04;;;;;;;5.90;1.43;;;3.50;99.90;;;;;;1980990;72;21063;-77
2021/03/15 01:42:30;;;;;;;2.45;1.47;;;3.40;99.90;;;;;;1981016;72;21062;-76
2021/03/15 01:44:56;;;;;;;3.40;1.80;;;3.40;99.90;;;;;;1980461;72;21055;-75
2021/03/15 01:47:23;;;;;;;2.58;1.70;;;3.30;99.90;;;;;;1980362;72;21061;-77
2021/03/15 01:49:49;;;;;;;4.45;1.98;;;3.20;99.90;;;;;;1981646;72;21501;-75
2021/03/15 01:52:15;;;;;;;1.65;1.40;;;3.00;99.90;;;;;;1978719;72;21101;-76
2021/03/15 01:54:42;;;;;;;6.83;1.60;;;3.00;99.90;;;;;;1980833;72;21034;-76
2021/03/15 01:57:08;;;;;;;1.52;1.42;;;2.90;99.90;;;;;;1981768;72;21066;-76
2021/03/15 01:59:34;;;;;;;2.05;1.40;;;2.80;99.90;;;;;;1981052;72;21123;-76
2021/03/15 02:02:00;;;;;;;2.10;1.30;;;2.80;99.90;;;;;;1980196;72;21062;-76
2021/03/15 02:04:27;;;;;;;2.85;1.37;;;2.80;99.90;;;;;;1980190;72;21019;-76
2021/03/15 02:06:53;;;;;;;3.55;1.67;;;2.70;99.90;;;;;;1980638;72;21506;-77
2021/03/15 02:09:19;;;;;;;5.72;1.25;;;2.70;99.90;;;;;;1979241;72;21440;-75
2021/03/15 02:11:45;;;;;;;4.22;1.60;;;2.70;99.90;;;;;;1980990;72;21102;-76
2021/03/15 02:14:14;;;;;;;2.02;1.50;;;2.80;99.90;;;;;;1981976;72;21007;-76
2021/03/15 02:16:40;;;;;;;1.22;1.12;;;2.80;99.90;;;;;;1981696;72;21495;-77
2021/03/15 02:19:06;;;;;;;1.85;1.72;;;2.70;99.90;;;;;;1978713;72;21534;-77
2021/03/15 02:21:33;;;;;;;2.08;1.60;;;2.70;99.90;;;;;;1979187;72;21551;-76
2021/03/15 02:23:59;;;;;;;1.30;1.20;;;2.70;99.90;;;;;;1979872;72;21046;-77
2021/03/15 02:26:25;;;;;;;1.22;1.12;;;2.70;99.90;;;;;;1980176;72;21062;-77
2021/03/15 02:28:51;;;;;;;1.50;1.40;;;2.50;99.90;;;;;;1980132;72;21050;-76
2021/03/15 02:31:17;;;;;;;8.98;1.72;;;2.50;99.90;;;;;;1980483;72;21054;-76
2021/03/15 02:33:43;;;;;;;1.20;1.10;;;2.60;99.90;;;;;;1978925;72;21055;-76
2021/03/15 02:36:09;;;;;;;2.52;1.40;;;2.50;99.90;;;;;;1980385;72;21055;-76
2021/03/15 02:38:35;;;;;;;3.33;1.60;;;2.50;99.90;;;;;;1978793;72;21031;-75
2021/03/15 02:41:02;;;;;;;2.52;1.52;;;2.30;99.90;;;;;;1978843;72;21579;-75
2021/03/15 02:43:29;;;;;;;2.45;1.50;;;2.40;99.90;;;;;;1981762;72;21454;-75
2021/03/15 02:45:55;;;;;;;1.40;1.22;;;2.40;99.90;;;;;;1979930;72;21078;-76
2021/03/15 02:48:21;;;;;;;1.77;1.50;;;2.30;99.90;;;;;;1978906;72;21128;-76
2021/03/15 02:50:47;;;;;;;2.65;1.62;;;2.30;99.90;;;;;;1980635;72;21132;-75
2021/03/15 02:53:14;;;;;;;1.50;1.37;;;2.20;99.90;;;;;;1939966;73;21450;-75
2021/03/15 02:55:40;;;;;;;15.85;1.90;;;2.30;99.90;;;;;;1978692;72;21123;-75
2021/03/15 02:58:06;;;;;;;2.10;1.80;;;2.20;99.90;;;;;;1981371;72;21119;-75
2021/03/15 03:00:32;;;;;;;2.58;1.67;;;2.30;99.90;;;;;;1981913;72;21116;-75
2021/03/15 03:02:58;;;;;;;2.08;1.67;;;2.20;99.90;;;;;;1981154;72;21050;-75
2021/03/15 03:05:25;;;;;;;2.17;1.65;;;2.30;99.90;;;;;;1978640;72;21027;-76
2021/03/15 03:07:51;;;;;;;2.70;1.22;;;2.20;99.90;;;;;;1980302;72;21120;-76
2021/03/15 03:10:17;;;;;;;4.97;1.70;;;2.20;99.90;;;;;;1978502;72;21152;-76
2021/03/15 03:12:43;;;;;;;1.32;1.10;;;2.10;99.90;;;;;;1979445;72;21552;-77
2021/03/15 03:15:12;;;;;;;5.12;2.10;;;2.30;99.90;;;;;;1980371;72;21451;-77
2021/03/15 03:17:42;;;;;;;2.00;1.50;;;2.30;99.90;;;;;;1980585;72;21116;-77
2021/03/15 03:20:06;;;;;;;4.62;2.02;;;2.20;99.90;;;;;;1938757;72;21548;-76
2021/03/15 03:22:32;;;;;;;3.83;2.22;;;2.40;99.90;;;;;;1943940;73;21510;-77
2021/03/15 03:24:58;;;;;;;3.00;1.80;;;2.40;99.90;;;;;;1980251;72;21058;-76
2021/03/15 03:27:24;;;;;;;3.08;1.60;;;2.40;99.90;;;;;;1979946;72;21166;-77
2021/03/15 03:29:50;;;;;;;2.62;1.32;;;2.50;99.90;;;;;;1981174;72;21027;-76
2021/03/15 03:32:16;;;;;;;1.70;1.55;;;2.50;99.90;;;;;;1981047;72;21050;-77
2021/03/15 03:34:42;;;;;;;1.67;1.57;;;2.60;99.90;;;;;;1981187;72;21128;-76
2021/03/15 03:37:08;;;;;;;1.90;1.42;;;2.50;99.90;;;;;;1980638;72;21039;-76
2021/03/15 03:39:35;;;;;;;2.17;1.40;;;2.60;99.90;;;;;;1981792;72;21058;-77
2021/03/15 03:42:01;;;;;;;6.60;1.85;;;2.60;99.90;;;;;;1978267;72;21050;-76
2021/03/15 03:44:27;;;;;;;1.90;1.30;;;2.60;99.90;;;;;;1980707;72;21277;-75
2021/03/15 03:46:53;;;;;;;1.20;1.12;;;2.70;99.90;;;;;;1978500;72;21027;-75
2021/03/15 03:49:19;;;;;;;2.17;1.40;;;2.70;99.90;;;;;;1978588;72;21017;-75
2021/03/15 03:51:45;;;;;;;1.47;1.37;;;2.70;99.90;;;;;;1979244;72;21113;-76
2021/03/15 03:54:11;;;;;;;2.33;1.57;;;2.80;99.90;;;;;;1981031;72;21478;-76
2021/03/15 03:56:37;;;;;;;3.92;1.72;;;2.90;99.90;;;;;;1947592;73;21523;-77
2021/03/15 03:59:03;;;;;;;1.17;1.12;;;2.90;99.90;;;;;;1950558;72;21050;-76
2021/03/15 04:01:30;;;;;;;1.47;1.37;;;2.90;99.90;;;;;;1951398;73;21046;-76
2021/03/15 04:03:56;;;;;;;3.77;1.70;;;2.90;99.90;;;;;;1944251;72;21070;-77
2021/03/15 04:06:22;;;;;;;2.83;1.52;;;2.90;99.90;;;;;;1948379;73;21022;-76
2021/03/15 04:08:48;;;;;;;1.82;1.25;;;2.90;99.90;;;;;;1947710;72;21049;-76
2021/03/15 04:11:14;;;;;;;2.22;1.67;;;3.00;99.90;;;;;;1951352;73;21107;-76
2021/03/15 04:13:40;;;;;;;1.82;1.22;;;3.00;99.90;;;;;;1949480;72;21127;-76
2021/03/15 04:16:06;;;;;;;2.00;1.45;;;3.00;99.90;;;;;;1951218;73;21167;-76
2021/03/15 04:18:32;;;;;;;12.58;1.15;;;3.00;99.90;;;;;;1944829;73;21053;-76
2021/03/15 04:20:59;;;;;;;2.08;1.15;;;2.90;99.90;;;;;;1945040;72;21147;-76
2021/03/15 04:23:25;;;;;;;1.25;0.98;;;2.90;99.90;;;;;;1941842;73;21035;-75
2021/03/15 04:25:51;;;;;;;1.30;1.20;;;2.90;99.90;;;;;;1944674;72;21547;-76
2021/03/15 04:28:17;;;;;;;3.77;1.00;;;2.90;99.90;;;;;;1943548;73;21457;-75
2021/03/15 04:30:43;;;;;;;1.22;1.12;;;3.10;99.90;;;;;;1944821;72;21469;-76
2021/03/15 04:33:09;;;;;;;1.55;1.17;;;3.20;99.90;;;;;;1941787;72;21384;-75
2021/03/15 04:35:35;;;;;;;5.08;1.37;;;3.20;99.90;;;;;;1946808;72;21168;-76
2021/03/15 04:38:02;;;;;;;1.02;1.02;;;3.20;99.90;;;;;;1946209;72;21568;-76
2021/03/15 04:40:28;;;;;;;1.45;1.00;;;3.30;99.90;;;;;;1950149;72;21492;-76
2021/03/15 04:42:59;;;;;;;2.70;1.27;;;3.30;99.90;;;;;;1947852;73;21465;-76
2021/03/15 04:45:22;;;;;;;1.02;0.98;;;3.30;99.90;;;;;;1950386;73;21061;-76
2021/03/15 04:47:48;;;;;;;1.30;1.20;;;3.30;99.90;;;;;;1945553;72;21156;-76
2021/03/15 04:50:14;;;;;;;6.28;1.30;;;3.30;99.90;;;;;;1944333;72;21480;-76
2021/03/15 04:52:40;;;;;;;2.00;1.20;;;3.20;99.90;;;;;;1943890;73;21494;-76
2021/03/15 04:55:06;;;;;;;2.45;1.32;;;3.20;99.90;;;;;;1951943;72;21497;-76
2021/03/15 04:57:32;;;;;;;3.08;1.65;;;3.30;99.90;;;;;;1949699;73;21139;-75
2021/03/15 04:59:58;;;;;;;2.25;1.50;;;3.30;99.90;;;;;;1944007;73;21054;-76
2021/03/15 05:02:24;;;;;;;2.55;1.30;;;3.30;99.90;;;;;;1941825;74;21112;-74
2021/03/15 05:04:51;;;;;;;3.55;1.60;;;3.30;99.90;;;;;;1941647;74;21071;-77
2021/03/15 05:07:18;;;;;;;0.78;0.78;;;3.30;99.90;;;;;;1948734;73;21143;-74
2021/03/15 05:09:44;;;;;;;1.17;1.10;;;3.40;99.90;;;;;;1951313;73;21054;-75
2021/03/15 05:12:10;;;;;;;2.10;1.40;;;3.50;99.90;;;;;;1946670;72;21027;-75
2021/03/15 05:14:37;;;;;;;3.08;1.50;;;3.40;99.90;;;;;;1950235;73;21097;-74
2021/03/15 05:17:03;;;;;;;6.15;1.37;;;3.40;99.90;;;;;;1938801;72;21124;-74
2021/03/15 05:19:29;;;;;;;2.52;1.10;;;3.50;99.90;;;;;;1951108;73;21050;-74
2021/03/15 05:21:55;;;;;;;1.25;1.00;;;3.60;99.90;;;;;;1951130;72;21207;-74
2021/03/15 05:24:22;;;;;;;1.25;1.12;;;3.60;99.90;;;;;;1947861;73;21065;-74
2021/03/15 05:26:48;;;;;;;3.20;1.40;;;3.60;99.90;;;;;;1943075;72;21065;-74
2021/03/15 05:29:14;;;;;;;1.82;1.07;;;3.60;99.90;;;;;;1947592;72;21070;-74
2021/03/15 05:31:42;;;;;;;1.12;1.00;;;3.60;99.90;;;;;;1951333;72;21034;-74
2021/03/15 05:34:08;;;;;;;3.90;1.67;;;3.60;99.90;;;;;;1949835;73;21050;-74
2021/03/15 05:36:34;;;;;;;2.17;0.93;;;3.60;99.90;;;;;;1937077;73;21059;-74
2021/03/15 05:39:00;;;;;;;3.90;1.10;;;3.60;99.90;;;;;;1949889;73;21116;-74
2021/03/15 05:41:26;;;;;;;3.67;1.27;;;3.70;99.90;;;;;;1948437;72;21112;-74
2021/03/15 05:43:52;;;;;;;6.62;1.67;;;3.70;99.90;;;;;;1951419;73;21038;-74
2021/03/15 05:46:18;;;;;;;9.08;1.10;;;3.70;99.90;;;;;;1951148;73;21131;-75
2021/03/15 05:48:45;;;;;;;2.27;1.30;;;3.70;99.90;;;;;;1950095;72;21119;-75
2021/03/15 05:51:11;;;;;;;4.05;1.52;;;3.70;99.90;;;;;;1942642;72;21023;-75
2021/03/15 05:53:37;;;;;;;1.77;1.20;;;3.70;99.90;;;;;;1949561;72;21138;-75
2021/03/15 05:56:03;;;;;;;1.25;1.15;;;3.70;99.90;;;;;;1951392;73;21051;-75
2021/03/15 05:58:29;;;;;;;2.00;1.27;;;3.70;99.90;;;;;;1942525;72;21141;-75
2021/03/15 06:00:56;;;;;;;3.27;1.62;;;3.70;99.90;;;;;;1941830;72;21077;-75
2021/03/15 06:03:22;;;;;;;1.00;0.93;;;3.70;99.90;;;;;;1944042;72;21054;-75
2021/03/15 06:05:48;;;;;;;3.42;1.45;;;3.80;99.90;;;;;;1948189;73;21139;-75
2021/03/15 06:08:14;;;;;;;1.30;1.20;;;3.80;99.90;;;;;;1947720;72;21053;-73
2021/03/15 06:10:41;;;;;;;1.98;1.47;;;3.70;99.90;;;;;;1951350;73;21053;-73
2021/03/15 06:13:07;;;;;;;4.00;1.98;;;3.70;99.90;;;;;;1943405;73;21493;-74
2021/03/15 06:15:34;;;;;;;3.22;1.52;;;3.70;99.90;;;;;;1947134;73;21054;-74
2021/03/15 06:18:00;;;;;;;6.83;1.42;;;3.70;99.90;;;;;;1944983;73;21125;-75
2021/03/15 06:20:26;;;;;;;2.33;1.80;;;3.70;99.90;;;;;;1941871;72;21300;-73
2021/03/15 06:22:52;;;;;;;3.15;1.77;;;3.80;99.90;;;;;;1949979;72;21130;-73
2021/03/15 06:25:18;;;;;;;2.72;1.07;;;3.80;99.90;;;;;;1943535;72;21120;-74
2021/03/15 06:27:44;;;;;;;2.77;1.47;;;3.80;99.90;;;;;;1941882;72;21143;-74
2021/03/15 06:30:10;;;;;;;3.40;1.35;;;3.90;99.90;;;;;;1942289;72;21493;-75
2021/03/15 06:32:36;;;;;;;4.60;1.25;;;3.90;99.90;;;;;;1944598;73;21469;-75
2021/03/15 06:35:03;;;;;;;3.33;1.42;;;3.90;99.90;;;;;;1945073;72;21120;-75
2021/03/15 06:37:29;;;;;;;2.77;1.00;;;4.00;99.90;;;;;;1951388;73;21021;-75
2021/03/15 06:39:55;;;;;;;4.58;1.62;;;4.10;99.90;;;;;;1949198;72;21062;-73
2021/03/15 06:42:21;;;;;;;3.12;1.32;;;4.10;99.90;;;;;;1945747;72;21019;-75
2021/03/15 06:44:47;;;;;;;2.40;1.37;;;4.10;99.90;;;;;;1947714;73;21065;-74
2021/03/15 06:47:13;;;;;;;2.08;1.17;;;4.10;99.90;;;;;;1944338;72;21058;-74
2021/03/15 06:49:39;;;;;;;1.27;1.17;;;4.00;99.90;;;;;;1951138;73;21070;-75
2021/03/15 06:52:05;;;;;;;1.75;1.37;;;4.00;99.90;;;;;;1944169;73;21070;-74
2021/03/15 06:54:33;;;;;;;4.92;1.25;;;4.10;99.90;;;;;;1945492;72;21063;-73
2021/03/15 06:56:59;;;;;;;3.37;1.40;;;4.10;99.90;;;;;;1951387;73;21046;-75
2021/03/15 06:59:27;;;;;;;1.85;1.07;;;4.30;99.90;;;;;;1951039;73;21050;-73
2021/03/15 07:01:53;;;;;;;7.15;1.40;;;4.30;99.90;;;;;;2006627;71;21124;-73
2021/03/15 07:04:19;;;;;;;1.87;1.22;;;4.50;99.90;;;;;;2017057;71;20984;-75
2021/03/15 07:06:45;;;;;;;2.77;1.47;;;4.50;99.90;;;;;;2016194;71;21439;-76
2021/03/15 07:09:11;;;;;;;0.72;0.65;;;4.40;99.90;;;;;;2017652;71;21551;-76
2021/03/15 07:11:37;;;;;;;2.90;1.30;;;4.40;99.90;;;;;;2016752;71;21548;-76
2021/03/15 07:14:04;;;;;;;1.55;1.00;;;4.40;99.90;;;;;;2016883;71;21131;-75
2021/03/15 07:16:30;;;;;;;1.85;1.02;;;4.40;99.90;;;;;;2017639;71;21055;-74
2021/03/15 07:18:56;;;;;;;1.35;1.25;;;4.30;99.90;;;;;;2017652;71;21047;-75
2021/03/15 07:21:22;;;;;;;2.58;1.25;;;4.30;99.90;;;;;;2018221;71;21051;-76
2021/03/15 07:23:55;;;;;;;6.80;1.27;;;4.30;99.90;;;;;;2017163;71;21044;-76
2021/03/15 07:26:16;;;;;;;1.35;0.90;;;4.50;99.90;;;;;;2016705;71;21012;-74
2021/03/15 07:28:43;;;;;;;1.20;0.90;;;4.40;99.90;;;;;;2016625;71;21035;-73
2021/03/15 07:31:09;;;;;;;2.00;1.10;;;4.60;99.90;;;;;;2014946;71;21055;-75
2021/03/15 07:33:36;;;;;;;4.15;1.27;;;4.60;99.90;;;;;;2016589;71;21462;-74
2021/03/15 07:36:02;;;;;;;1.12;0.93;;;4.70;99.90;;;;;;2015834;71;21478;-75
2021/03/15 07:38:28;;;;;;;0.62;0.62;;;4.70;99.90;;;;;;2016242;71;21471;-75
2021/03/15 07:40:54;;;;;;;2.02;0.70;;;4.60;99.90;;;;;;2015185;71;21060;-75
2021/03/15 07:43:20;;;;;;;0.75;0.75;;;4.70;99.90;;;;;;2015747;71;21020;-76
2021/03/15 07:45:46;;;;;;;0.75;0.75;;;4.70;99.90;;;;;;2016311;71;21042;-75
2021/03/15 07:48:12;;;;;;;1.52;0.55;;;4.70;99.90;;;;;;2015025;71;21116;-73
2021/03/15 07:50:39;;;;;;;0.60;0.60;;;4.70;99.90;;;;;;2017257;71;21050;-74
2021/03/15 07:53:05;;;;;;;0.55;0.55;;;4.60;99.90;;;;;;2016166;71;21050;-74
2021/03/15 07:55:31;;;;;;;2.02;1.05;;;4.50;99.90;;;;;;2017552;71;21055;-72
2021/03/15 07:57:57;;;;;;;1.15;0.72;;;4.30;99.90;;;;;;2015660;71;21078;-72
2021/03/15 08:00:25;;;;;;;0.40;0.40;;;4.20;99.90;;;;;;2017605;71;21050;-73
2021/03/15 08:02:51;;;;;;;0.47;0.47;;;4.20;99.90;;;;;;2016684;71;21474;-73
2021/03/15 08:05:17;;;;;;;0.60;0.60;;;4.00;99.90;;;;;;2014864;71;21086;-74
2021/03/15 08:07:43;;;;;;;0.50;0.50;;;4.10;99.90;;;;;;2017594;71;21007;-74
2021/03/15 08:10:11;;;;;;;0.33;0.33;;;4.10;99.90;;;;;;2016625;71;21124;-75
2021/03/15 08:12:37;;;;;;;0.75;0.60;;;4.00;99.90;;;;;;2015575;71;21493;-74
2021/03/15 08:15:03;;;;;;;0.50;0.50;;;4.00;99.90;;;;;;2017796;71;21462;-72
2021/03/15 08:17:32;;;;;;;0.57;0.50;;;4.10;99.90;;;;;;2014822;71;21042;-75
2021/03/15 08:19:57;;;;;;;0.60;0.60;;;4.20;99.90;;;;;;2014250;71;21094;-74
2021/03/15 08:22:23;;;;;;;0.50;0.50;;;4.10;99.90;;;;;;2016400;71;21059;-75
2021/03/15 08:24:49;;;;;;;2.33;0.60;;;4.20;99.90;;;;;;2015224;71;21089;-73
2021/03/15 08:27:16;;;;;;;1.17;0.55;;;4.20;99.90;;;;;;2016151;71;21028;-74
2021/03/15 08:29:42;;;;;;;1.02;0.72;;;4.30;99.90;;;;;;2017574;71;21050;-74
2021/03/15 08:32:08;;;;;;;1.12;0.78;;;4.30;99.90;;;;;;1986334;71;21151;-73
2021/03/15 08:34:34;;;;;;;1.47;1.12;;;4.40;99.90;;;;;;2016213;71;21120;-73
2021/03/15 08:37:00;;;;;;;2.15;0.78;;;4.40;99.90;;;;;;2015484;71;21116;-73
2021/03/15 08:39:32;;;;;;;0.70;0.70;;;4.50;99.90;;;;;;2016983;71;21112;-74
2021/03/15 08:41:58;;;;;;;1.15;0.80;;;4.60;99.90;;;;;;2016371;71;21127;-74
2021/03/15 08:44:25;;;;;;;1.05;0.50;;;4.70;99.90;;;;;;2017806;71;21120;-75
2021/03/15 08:46:51;;;;;;;1.95;0.72;;;4.90;99.90;;;;;;2016919;71;21055;-75
2021/03/15 08:49:29;;;;;;;2.80;1.00;;;4.90;99.90;;;;;;2015113;71;21028;-76
2021/03/15 08:51:46;;;;;;;0.65;0.53;;;5.00;99.90;;;;;;2014746;71;21080;-75
2021/03/15 08:54:12;;;;;;;0.60;0.60;;;5.00;99.90;;;;;;2016536;71;21027;-75
2021/03/15 08:56:39;;;;;;;0.50;0.50;;;5.10;99.90;;;;;;2015400;71;21012;-76
2021/03/15 08:59:05;;;;;;;0.62;0.62;;;5.10;99.90;;;;;;2017235;71;21415;-75
2021/03/15 09:01:31;;;;;;;0.82;0.70;;;5.00;99.90;;;;;;2015178;71;21559;-74
2021/03/15 09:03:57;;;;;;;0.90;0.60;;;5.10;99.90;;;;;;2016370;71;21751;-74
2021/03/15 09:06:25;;;;;;;0.50;0.50;;;5.00;99.90;;;;;;2015282;71;21054;-74
2021/03/15 09:08:51;;;;;;;0.60;0.60;;;5.00;99.90;;;;;;2017535;71;21482;-75
2021/03/15 09:11:17;;;;;;;0.60;0.60;;;5.00;99.90;;;;;;2017183;71;21458;-76
2021/03/15 09:13:43;;;;;;;0.72;0.50;;;5.10;99.90;;;;;;2017011;71;21466;-75
2021/03/15 09:16:09;;;;;;;0.47;0.40;;;5.10;99.90;;;;;;2015885;71;21051;-75
2021/03/15 09:18:35;;;;;;;0.35;0.35;;;5.20;99.90;;;;;;2015551;71;21124;-75
2021/03/15 09:21:01;;;;;;;0.30;0.30;;;5.20;99.90;;;;;;2017869;71;21019;-76
2021/03/15 09:23:27;;;;;;;0.23;0.23;;;5.20;99.90;;;;;;2017828;71;21167;-76
2021/03/15 09:25:54;;;;;;;0.37;0.37;;;5.30;99.90;;;;;;2017912;71;21113;-76
2021/03/15 09:28:20;;;;;;;0.88;0.30;;;5.40;99.90;;;;;;2017196;71;21054;-76
2021/03/15 09:30:46;;;;;;;0.42;0.42;;;5.50;99.90;;;;;;2017218;71;21140;-75
2021/03/15 09:33:12;;;;;;;0.50;0.50;;;5.50;99.90;;;;;;2017695;71;21055;-75
2021/03/15 09:35:46;;;;;;;0.37;0.37;;;5.60;99.90;;;;;;2017420;71;21388;-75
2021/03/15 09:38:10;;;;;;;0.40;0.40;;;5.50;99.90;;;;;;2014960;71;21164;-75
2021/03/15 09:40:36;;;;;;;1.40;0.40;;;5.50;99.90;;;;;;2017731;71;21058;-74
2021/03/15 09:43:02;;;;;;;1.25;0.45;;;5.40;99.90;;;;;;2017833;71;21016;-75
2021/03/15 09:45:28;;;;;;;1.00;0.57;;;5.50;99.90;;;;;;2017222;71;21042;-75
2021/03/15 09:47:55;;;;;;;0.37;0.37;;;5.60;99.90;;;;;;2017674;71;21202;-75
2021/03/15 09:50:21;;;;;;;5.70;0.65;;;5.70;99.90;;;;;;2017877;71;21431;-76
2021/03/15 09:52:47;;;;;;;0.60;0.57;;;5.70;99.90;;;;;;2015897;71;21745;-75
2021/03/15 09:55:13;;;;;;;1.57;0.40;;;5.80;99.90;;;;;;2015386;71;21568;-74
2021/03/15 09:57:39;;;;;;;1.20;0.70;;;5.80;99.90;;;;;;2016955;71;21495;-74
2021/03/15 10:00:05;;;;;;;1.02;0.68;;;5.90;99.90;;;;;;2016339;71;21016;-74
2021/03/15 10:02:31;;;;;;;0.95;0.50;;;5.80;99.90;;;;;;2016928;71;21170;-76
2021/03/15 10:04:57;;;;;;;0.20;0.20;;;5.90;99.90;;;;;;2016550;71;21090;-75
2021/03/15 10:07:24;;;;;;;1.00;0.60;;;5.90;99.90;;;;;;2016688;71;21047;-73
2021/03/15 10:09:50;;;;;;;2.35;0.50;;;5.90;99.90;;;;;;2018304;71;21104;-74
2021/03/15 10:12:18;;;;;;;0.30;0.30;;;6.00;99.90;;;;;;2015387;71;21521;-74
2021/03/15 10:14:44;;;;;;;0.80;0.50;;;6.00;99.90;;;;;;2017617;71;21139;-74
2021/03/15 10:17:10;;;;;;;1.02;0.53;;;6.10;99.90;;;;;;2017177;71;21028;-74
2021/03/15 10:19:37;;;;;;;1.25;0.50;;;6.20;99.90;;;;;;2015017;71;21462;-75
2021/03/15 10:22:03;;;;;;;0.50;0.50;;;6.30;99.90;;;;;;2016714;71;21563;-74
2021/03/15 10:24:29;;;;;;;1.80;0.60;;;6.40;99.90;;;;;;2016829;71;21044;-74
2021/03/15 10:26:55;;;;;;;1.22;0.60;;;6.40;99.90;;;;;;2014727;71;21132;-74
2021/03/15 10:29:21;;;;;;;0.88;0.65;;;6.40;99.90;;;;;;2014752;71;21128;-75
2021/03/15 10:31:47;;;;;;;0.60;0.60;;;6.30;99.90;;;;;;2014410;71;21024;-74
2021/03/15 10:34:13;;;;;;;1.20;0.62;;;6.40;99.90;;;;;;2014484;71;21103;-75
2021/03/15 10:36:39;;;;;;;0.70;0.70;;;6.30;99.90;;;;;;2015273;71;21112;-74
2021/03/15 10:39:07;;;;;;;0.72;0.70;;;6.40;99.90;;;;;;2015410;71;21046;-73
2021/03/15 10:41:33;;;;;;;0.95;0.70;;;6.20;99.90;;;;;;2015390;71;21066;-74
2021/03/15 10:44:00;;;;;;;1.98;0.47;;;6.20;99.90;;;;;;2017066;71;21116;-74
2021/03/15 10:46:29;;;;;;;1.42;0.70;;;6.30;99.90;;;;;;2016204;71;21112;-74
2021/03/15 10:48:54;;;;;;;1.35;0.68;;;6.30;99.90;;;;;;2016230;71;21209;-74
2021/03/15 10:51:22;;;;;;;1.00;0.80;;;6.30;99.90;;;;;;2015687;71;21019;-73
2021/03/15 10:53:48;;;;;;;1.25;0.88;;;6.20;99.90;;;;;;2017109;71;21182;-75
2021/03/15 10:56:14;;;;;;;0.50;0.50;;;6.30;99.90;;;;;;2015384;71;21104;-73
2021/03/15 10:58:40;;;;;;;0.93;0.62;;;6.40;99.90;;;;;;2016631;71;21051;-74
2021/03/15 11:01:06;;;;;;;0.78;0.78;;;6.40;99.90;;;;;;2016611;71;21051;-74
2021/03/15 11:03:32;;;;;;;1.10;0.82;;;6.50;99.90;;;;;;2017103;71;21161;-74
2021/03/15 11:05:58;;;;;;;0.75;0.60;;;6.60;99.90;;;;;;2016611;71;21055;-73
2021/03/15 11:08:27;;;;;;;0.50;0.50;;;6.70;99.90;;;;;;2016585;71;21475;-74
2021/03/15 11:10:53;;;;;;;1.10;0.65;;;6.80;99.90;;;;;;2019154;71;21007;-74
2021/03/15 11:13:21;;;;;;;0.57;0.57;;;7.00;99.90;;;;;;2017023;71;21008;-75
2021/03/15 11:15:47;;;;;;;0.68;0.68;;;7.20;99.90;;;;;;2016325;71;21047;-74
2021/03/15 11:18:14;;;;;;;0.65;0.47;;;7.10;99.90;;;;;;2016093;71;21034;-75
2021/03/15 11:20:40;;;;;;;1.17;0.60;;;7.00;99.90;;;;;;2014610;71;21557;-74
2021/03/15 11:23:06;;;;;;;0.65;0.53;;;7.00;99.90;;;;;;2014807;71;21479;-74
2021/03/15 11:25:32;;;;;;;0.50;0.50;;;7.10;99.90;;;;;;2015989;71;21038;-74
2021/03/15 11:27:58;;;;;;;0.68;0.50;;;7.00;99.90;;;;;;2017749;71;21086;-75
2021/03/15 11:30:24;;;;;;;0.62;0.55;;;7.00;99.90;;;;;;2017434;71;21007;-75
2021/03/15 11:32:50;;;;;;;1.45;0.60;;;7.10;99.90;;;;;;2017714;71;21034;-76
2021/03/15 11:35:18;;;;;;;0.50;0.50;;;7.30;99.90;;;;;;2015292;71;21120;-74
2021/03/15 11:37:44;;;;;;;3.00;0.72;;;7.30;99.90;;;;;;2017506;71;21054;-74
2021/03/15 11:40:11;;;;;;;0.57;0.55;;;7.50;99.90;;;;;;2015467;71;21108;-75
2021/03/15 11:42:40;;;;;;;0.50;0.50;;;7.60;99.90;;;;;;1995168;71;21163;-76
2021/03/15 11:45:05;;;;;;;0.57;0.57;;;7.70;99.90;;;;;;2015258;71;21158;-75
2021/03/15 11:47:31;;;;;;;0.60;0.53;;;7.80;99.90;;;;;;2017304;71;21050;-76
2021/03/15 11:49:58;;;;;;;0.53;0.53;;;7.80;99.90;;;;;;2017512;71;21094;-73
2021/03/15 11:52:25;;;;;;;1.05;0.65;;;7.80;99.90;;;;;;2016034;71;21055;-74
2021/03/15 11:54:52;;;;;;;0.45;0.45;;;7.80;99.90;;;;;;2016158;71;21050;-74
2021/03/15 11:57:18;;;;;;;0.65;0.60;;;7.80;99.90;;;;;;2016162;71;21098;-74
2021/03/15 11:59:44;;;;;;;0.53;0.53;;;7.80;99.90;;;;;;2016613;71;21020;-74
2021/03/15 12:02:10;;;;;;;1.42;0.82;;;7.80;99.90;;;;;;2016829;71;21042;-74
2021/03/15 12:04:36;;;;;;;0.80;0.80;;;7.70;99.90;;;;;;2015821;71;21066;-73
2021/03/15 12:07:02;;;;;;;0.62;0.62;;;7.80;99.90;;;;;;2016435;71;21133;-74
2021/03/15 12:09:29;;;;;;;3.65;0.95;;;8.00;99.90;;;;;;2017182;71;21051;-74
2021/03/15 12:11:55;;;;;;;0.80;0.70;;;8.20;99.90;;;;;;2017139;71;21048;-74
2021/03/15 12:14:21;;;;;;;2.25;0.90;;;8.50;99.90;;;;;;2016221;71;21048;-73
2021/03/15 12:16:47;;;;;;;0.85;0.85;;;8.80;99.90;;;;;;2016142;71;21135;-74
2021/03/15 12:19:14;;;;;;;1.27;0.88;;;9.00;99.90;;;;;;2015363;71;21407;-73
2021/03/15 12:21:40;;;;;;;0.82;0.82;;;9.30;99.90;;;;;;2016070;71;21116;-73
2021/03/15 12:24:06;;;;;;;0.90;0.80;;;9.30;99.90;;;;;;2016540;71;21045;-73
2021/03/15 12:26:33;;;;;;;0.70;0.70;;;8.90;99.90;;;;;;2014828;71;21120;-76
2021/03/15 12:28:59;;;;;;;0.60;0.60;;;8.40;99.90;;;;;;2016109;71;21094;-76
2021/03/15 12:31:25;;;;;;;0.75;0.53;;;8.20;99.90;;;;;;2016186;71;21127;-75
2021/03/15 12:33:51;;;;;;;0.57;0.57;;;8.10;99.90;;;;;;2014731;71;21178;-75
2021/03/15 12:36:17;;;;;;;0.50;0.50;;;7.80;99.90;;;;;;2014350;71;21020;-75
2021/03/15 12:38:43;;;;;;;0.40;0.40;;;7.80;99.90;;;;;;2016669;71;21486;-75
2021/03/15 12:41:09;;;;;;;0.37;0.37;;;7.70;99.90;;;;;;2014940;71;21528;-75
2021/03/15 12:43:35;;;;;;;0.60;0.60;;;7.60;99.90;;;;;;2014222;71;21548;-75
2021/03/15 12:46:01;;;;;;;0.60;0.50;;;7.60;99.90;;;;;;2014409;71;21031;-76
2021/03/15 12:48:28;;;;;;;0.42;0.42;;;7.60;99.90;;;;;;2014276;71;21056;-75
2021/03/15 12:50:54;;;;;;;0.98;0.80;;;7.60;99.90;;;;;;2015713;71;20988;-74